PWSweather.com
Personal Weather Stations
Station Observations

YeovilGB

Lat: 50.949, Lon: -2.627

Elevation: 70

Station Type: Vantage Pro

http://www.yeovil-weather.me.uk/

High Low Average
Temperature 53.3°F11.8°C 35.4°F1.9°C 46.5°F8.1°C
Dew Point 48.8°F9.3°C 33.0°F0.6°C 42.1°F5.6°C
Winds 3.5 mph 5.6 kmh Calm Calm 1.0 mph WSW1.6 kmh WSW
Wind Gusts 11.5 mph18.5 kmh -- 2.0 mph3.2 kmh
Humidity 96% 64% 85%
Pressure 30.03 in1016.9 mb 29.59 in1002.0 mb -
Precipitation 0.11 in2.8 mm - -
Hour Temp Dew Point Humidity Winds Wind Gusts Pressure Precip Precip Rate Daily Precip Total
12:00 AM 46.3°F7.9°C 44.1°F6.7°C 92% Calm Calm -- 29.62 in1003.0 mb - 0.00 in0.0 mm 0.00 in0.0 mm
12:10 AM 46.0°F7.8°C 44.1°F6.7°C 93% Calm Calm -- 29.62 in1003.0 mb - 0.00 in0.0 mm 0.00 in0.0 mm
12:20 AM 45.8°F7.7°C 43.6°F6.4°C 92% Calm Calm -- 29.62 in1003.0 mb - 0.00 in0.0 mm 0.00 in0.0 mm
12:30 AM 45.6°F7.6°C 43.7°F6.5°C 93% Calm Calm -- 29.62 in1003.0 mb - 0.00 in0.0 mm 0.00 in0.0 mm
12:40 AM 45.5°F7.5°C 43.6°F6.4°C 93% Calm Calm -- 29.62 in1003.0 mb - 0.00 in0.0 mm 0.00 in0.0 mm
12:50 AM 45.5°F7.5°C 43.6°F6.4°C 93% Calm Calm -- 29.61 in1002.7 mb - 0.00 in0.0 mm 0.00 in0.0 mm
01:00 AM 45.7°F7.6°C 44.1°F6.7°C 94% Calm Calm -- 29.61 in1002.7 mb - 0.00 in0.0 mm 0.00 in0.0 mm
01:10 AM 46.0°F7.8°C 44.4°F6.9°C 94% Calm Calm -- 29.61 in1002.7 mb - 0.00 in0.0 mm 0.00 in0.0 mm
01:20 AM 46.1°F7.8°C 44.4°F6.9°C 94% Calm Calm -- 29.61 in1002.7 mb - 0.00 in0.0 mm 0.00 in0.0 mm
01:30 AM 46.2°F7.9°C 44.6°F7.0°C 94% Calm Calm -- 29.62 in1003.0 mb - 0.01 in0.3 mm 0.01 in0.3 mm
01:40 AM 46.4°F8.0°C 45.0°F7.2°C 95% Calm Calm -- 29.62 in1003.0 mb - 0.02 in0.5 mm 0.02 in0.5 mm
01:50 AM 46.8°F8.2°C 45.4°F7.4°C 95% Calm Calm -- 29.61 in1002.7 mb - 0.02 in0.5 mm 0.04 in1.0 mm
02:00 AM 47.2°F8.4°C 45.8°F7.7°C 95% Calm Calm -- 29.62 in1003.0 mb - 0.00 in0.0 mm 0.04 in1.0 mm
02:10 AM 47.4°F8.6°C 46.0°F7.8°C 95% Calm Calm -- 29.61 in1002.7 mb - 0.00 in0.0 mm 0.04 in1.0 mm
02:20 AM 47.5°F8.6°C 46.1°F7.8°C 95% Calm Calm -- 29.61 in1002.7 mb - 0.00 in0.0 mm 0.04 in1.0 mm
02:30 AM 47.5°F8.6°C 46.1°F7.8°C 95% Calm Calm -- 29.61 in1002.7 mb - 0.00 in0.0 mm 0.04 in1.0 mm
02:40 AM 47.4°F8.6°C 46.0°F7.8°C 95% Calm Calm -- 29.61 in1002.7 mb - 0.00 in0.0 mm 0.04 in1.0 mm
02:50 AM 47.5°F8.6°C 46.2°F7.9°C 95% Calm Calm -- 29.61 in1002.7 mb - 0.00 in0.0 mm 0.04 in1.0 mm
03:00 AM 47.5°F8.6°C 46.2°F7.9°C 95% Calm Calm -- 29.61 in1002.7 mb - 0.01 in0.3 mm 0.05 in1.3 mm
03:10 AM 47.5°F8.6°C 46.1°F7.8°C 95% Calm Calm -- 29.60 in1002.4 mb - 0.00 in0.0 mm 0.05 in1.3 mm
03:20 AM 47.4°F8.6°C 46.1°F7.8°C 95% Calm Calm -- 29.60 in1002.4 mb - 0.00 in0.0 mm 0.05 in1.3 mm
03:30 AM 47.4°F8.6°C 46.0°F7.8°C 95% Calm Calm -- 29.60 in1002.4 mb - 0.02 in0.5 mm 0.07 in1.8 mm
03:40 AM 47.6°F8.7°C 46.2°F7.9°C 95% Calm Calm -- 29.60 in1002.4 mb - 0.02 in0.5 mm 0.09 in2.3 mm
03:50 AM 47.6°F8.7°C 46.2°F7.9°C 95% Calm Calm -- 29.59 in1002.0 mb - 0.00 in0.0 mm 0.09 in2.3 mm
04:00 AM 47.6°F8.7°C 46.2°F7.9°C 95% Calm Calm -- 29.59 in1002.0 mb - 0.00 in0.0 mm 0.09 in2.3 mm
04:10 AM 47.4°F8.6°C 46.0°F7.8°C 95% Calm Calm -- 29.59 in1002.0 mb - 0.00 in0.0 mm 0.09 in2.3 mm
04:20 AM 47.2°F8.4°C 45.8°F7.7°C 95% Calm Calm -- 29.60 in1002.4 mb - 0.00 in0.0 mm 0.09 in2.3 mm
04:30 AM 46.7°F8.2°C 45.1°F7.3°C 94% Calm Calm -- 29.60 in1002.4 mb - 0.00 in0.0 mm 0.09 in2.3 mm
04:40 AM 46.4°F8.0°C 45.0°F7.2°C 95% Calm Calm -- 29.60 in1002.4 mb - 0.00 in0.0 mm 0.09 in2.3 mm
04:50 AM 46.4°F8.0°C 45.0°F7.2°C 95% Calm Calm -- 29.60 in1002.4 mb - 0.00 in0.0 mm 0.09 in2.3 mm
05:00 AM 46.5°F8.1°C 45.5°F7.5°C 96% Calm Calm -- 29.60 in1002.4 mb - 0.00 in0.0 mm 0.09 in2.3 mm
05:10 AM 46.8°F8.2°C 45.7°F7.6°C 96% Calm Calm -- 29.61 in1002.7 mb - 0.01 in0.3 mm 0.09 in2.3 mm
05:20 AM 47.0°F8.3°C 45.9°F7.7°C 96% Calm Calm -- 29.61 in1002.7 mb - 0.00 in0.0 mm 0.09 in2.3 mm
05:30 AM 47.2°F8.4°C 46.1°F7.8°C 96% Calm Calm -- 29.61 in1002.7 mb - 0.01 in0.3 mm 0.10 in2.5 mm
05:40 AM 47.2°F8.4°C 46.1°F7.8°C 96% Calm Calm -- 29.61 in1002.7 mb - 0.00 in0.0 mm 0.10 in2.5 mm
05:50 AM 47.2°F8.4°C 46.1°F7.8°C 96% Calm Calm 1.2 mph1.9 kmh 29.62 in1003.0 mb - 0.00 in0.0 mm 0.10 in2.5 mm
06:00 AM 47.2°F8.4°C 46.1°F7.8°C 96% Calm Calm -- 29.62 in1003.0 mb - 0.00 in0.0 mm 0.10 in2.5 mm
06:10 AM 47.0°F8.3°C 45.6°F7.6°C 95% Calm Calm -- 29.62 in1003.0 mb - 0.00 in0.0 mm 0.10 in2.5 mm
06:20 AM 46.9°F8.3°C 45.8°F7.7°C 96% Calm Calm -- 29.62 in1003.0 mb - 0.00 in0.0 mm 0.10 in2.5 mm
06:30 AM 47.0°F8.3°C 45.9°F7.7°C 96% Calm Calm -- 29.63 in1003.4 mb - 0.00 in0.0 mm 0.10 in2.5 mm
06:40 AM 47.1°F8.4°C 46.0°F7.8°C 96% 1.2 mph SW1.9 kmh SW -- 29.63 in1003.4 mb - 0.00 in0.0 mm 0.10 in2.5 mm
06:50 AM 47.2°F8.4°C 46.1°F7.8°C 96% 1.2 mph SW1.9 kmh SW 2.3 mph3.7 kmh 29.63 in1003.4 mb - 0.00 in0.0 mm 0.10 in2.5 mm
07:00 AM 47.3°F8.5°C 46.2°F7.9°C 96% Calm Calm -- 29.64 in1003.7 mb - 0.00 in0.0 mm 0.10 in2.5 mm
07:10 AM 47.2°F8.4°C 46.1°F7.8°C 96% Calm Calm 1.2 mph1.9 kmh 29.64 in1003.7 mb - 0.00 in0.0 mm 0.10 in2.5 mm
07:20 AM 47.2°F8.4°C 46.1°F7.8°C 96% Calm Calm -- 29.64 in1003.7 mb - 0.00 in0.0 mm 0.10 in2.5 mm
07:30 AM 47.1°F8.4°C 46.1°F7.8°C 96% 1.2 mph WSW1.9 kmh WSW 8.1 mph13.0 kmh 29.65 in1004.1 mb - 0.00 in0.0 mm 0.10 in2.5 mm
07:40 AM 47.2°F8.4°C 46.1°F7.8°C 96% Calm Calm -- 29.66 in1004.4 mb - 0.00 in0.0 mm 0.10 in2.5 mm
07:50 AM 47.2°F8.4°C 46.1°F7.8°C 96% Calm Calm -- 29.66 in1004.4 mb - 0.00 in0.0 mm 0.10 in2.5 mm
08:00 AM 47.3°F8.5°C 46.2°F7.9°C 96% 1.2 mph W1.9 kmh W 5.8 mph9.3 kmh 29.67 in1004.7 mb - 0.00 in0.0 mm 0.10 in2.5 mm
08:10 AM 47.4°F8.6°C 46.0°F7.8°C 95% Calm Calm -- 29.68 in1005.1 mb - 0.00 in0.0 mm 0.10 in2.5 mm
08:20 AM 47.4°F8.6°C 46.0°F7.8°C 95% Calm Calm 4.6 mph7.4 kmh 29.68 in1005.1 mb - 0.00 in0.0 mm 0.10 in2.5 mm
08:30 AM 47.6°F8.7°C 46.2°F7.9°C 95% 1.2 mph NW1.9 kmh NW 4.6 mph7.4 kmh 29.68 in1005.1 mb - 0.00 in0.0 mm 0.10 in2.5 mm
08:40 AM 47.7°F8.7°C 46.3°F7.9°C 95% Calm Calm 3.5 mph5.6 kmh 29.68 in1005.1 mb - 0.00 in0.0 mm 0.10 in2.5 mm
08:50 AM 47.9°F8.8°C 46.8°F8.2°C 96% 2.3 mph NW3.7 kmh NW 5.8 mph9.3 kmh 29.68 in1005.1 mb - 0.01 in0.3 mm 0.11 in2.8 mm
09:00 AM 48.1°F8.9°C 46.7°F8.2°C 95% Calm Calm 2.3 mph3.7 kmh 29.69 in1005.4 mb - 0.00 in0.0 mm 0.11 in2.8 mm
09:10 AM 48.2°F9.0°C 46.8°F8.2°C 95% Calm Calm -- 29.69 in1005.4 mb - 0.00 in0.0 mm 0.11 in2.8 mm
09:20 AM 48.7°F9.3°C 47.6°F8.7°C 96% Calm Calm -- 29.70 in1005.8 mb - 0.00 in0.0 mm 0.11 in2.8 mm
09:30 AM 48.8°F9.3°C 47.4°F8.6°C 95% Calm Calm -- 29.70 in1005.8 mb - 0.00 in0.0 mm 0.11 in2.8 mm
09:50 AM 50.2°F10.1°C 48.8°F9.3°C 95% 2.3 mph NW3.7 kmh NW 4.6 mph7.4 kmh 29.70 in1005.8 mb - 0.00 in0.0 mm 0.11 in2.8 mm
10:00 AM 49.9°F9.9°C 47.7°F8.7°C 92% 1.2 mph NW1.9 kmh NW 2.3 mph3.7 kmh 29.70 in1005.8 mb - 0.00 in0.0 mm 0.11 in2.8 mm
10:10 AM 50.5°F10.3°C 48.0°F8.9°C 91% 3.5 mph NW5.6 kmh NW 4.6 mph7.4 kmh 29.70 in1005.8 mb - 0.00 in0.0 mm 0.11 in2.8 mm
10:20 AM 51.3°F10.7°C 48.2°F9.0°C 89% Calm Calm 1.2 mph1.9 kmh 29.71 in1006.1 mb - 0.00 in0.0 mm 0.11 in2.8 mm
10:30 AM 52.1°F11.2°C 47.7°F8.7°C 85% 1.2 mph NW1.9 kmh NW 4.6 mph7.4 kmh 29.71 in1006.1 mb - 0.00 in0.0 mm 0.11 in2.8 mm
10:40 AM 52.5°F11.4°C 47.5°F8.6°C 83% 2.3 mph NW3.7 kmh NW 3.5 mph5.6 kmh 29.71 in1006.1 mb - 0.00 in0.0 mm 0.11 in2.8 mm
10:50 AM 52.4°F11.3°C 46.4°F8.0°C 80% 2.3 mph NW3.7 kmh NW 4.6 mph7.4 kmh 29.71 in1006.1 mb - 0.00 in0.0 mm 0.11 in2.8 mm
11:00 AM 52.3°F11.3°C 45.7°F7.6°C 78% 1.2 mph WNW1.9 kmh WNW 5.8 mph9.3 kmh 29.72 in1006.4 mb - 0.00 in0.0 mm 0.11 in2.8 mm
11:10 AM 51.5°F10.8°C 44.9°F7.2°C 78% 2.3 mph NW3.7 kmh NW 6.9 mph11.1 kmh 29.72 in1006.4 mb - 0.00 in0.0 mm 0.11 in2.8 mm
11:20 AM 51.3°F10.7°C 45.0°F7.2°C 79% 1.2 mph NW1.9 kmh NW 5.8 mph9.3 kmh 29.72 in1006.4 mb - 0.00 in0.0 mm 0.11 in2.8 mm
11:30 AM 51.3°F10.7°C 45.3°F7.4°C 80% 2.3 mph WNW3.7 kmh WNW 8.1 mph13.0 kmh 29.72 in1006.4 mb - 0.00 in0.0 mm 0.11 in2.8 mm
11:40 AM 51.5°F10.8°C 45.8°F7.7°C 81% Calm Calm 1.2 mph1.9 kmh 29.72 in1006.4 mb - 0.00 in0.0 mm 0.11 in2.8 mm
11:50 AM 52.1°F11.2°C 45.1°F7.3°C 77% 1.2 mph NW1.9 kmh NW 6.9 mph11.1 kmh 29.73 in1006.8 mb - 0.00 in0.0 mm 0.11 in2.8 mm
12:00 PM 52.8°F11.6°C 45.4°F7.4°C 76% 2.3 mph WNW3.7 kmh WNW 5.8 mph9.3 kmh 29.73 in1006.8 mb - 0.00 in0.0 mm 0.11 in2.8 mm
12:10 PM 53.1°F11.7°C 43.6°F6.4°C 70% 3.5 mph NW5.6 kmh NW 11.5 mph18.5 kmh 29.74 in1007.1 mb - 0.00 in0.0 mm 0.11 in2.8 mm
12:20 PM 53.0°F11.7°C 43.1°F6.2°C 69% 2.3 mph NW3.7 kmh NW 11.5 mph18.5 kmh 29.74 in1007.1 mb - 0.00 in0.0 mm 0.11 in2.8 mm
12:30 PM 53.0°F11.7°C 43.1°F6.2°C 69% 2.3 mph WNW3.7 kmh WNW 11.5 mph18.5 kmh 29.74 in1007.1 mb - 0.00 in0.0 mm 0.11 in2.8 mm
12:40 PM 53.3°F11.8°C 42.2°F5.7°C 66% 2.3 mph NW3.7 kmh NW 8.1 mph13.0 kmh 29.74 in1007.1 mb - 0.00 in0.0 mm 0.11 in2.8 mm
12:50 PM 53.2°F11.8°C 41.3°F5.2°C 64% 2.3 mph NW3.7 kmh NW 10.4 mph16.7 kmh 29.75 in1007.5 mb - 0.00 in0.0 mm 0.11 in2.8 mm
01:00 PM 53.0°F11.7°C 42.0°F5.6°C 66% 2.3 mph NW3.7 kmh NW 10.4 mph16.7 kmh 29.75 in1007.5 mb - 0.00 in0.0 mm 0.11 in2.8 mm
01:10 PM 53.1°F11.7°C 42.0°F5.6°C 66% 2.3 mph NW3.7 kmh NW 9.2 mph14.8 kmh 29.75 in1007.5 mb - 0.00 in0.0 mm 0.11 in2.8 mm
01:20 PM 52.0°F11.1°C 41.4°F5.2°C 67% Calm Calm 1.2 mph1.9 kmh 29.76 in1007.8 mb - 0.00 in0.0 mm 0.11 in2.8 mm
01:30 PM 51.4°F10.8°C 40.4°F4.7°C 66% 1.2 mph NW1.9 kmh NW 4.6 mph7.4 kmh 29.76 in1007.8 mb - 0.00 in0.0 mm 0.11 in2.8 mm
01:40 PM 50.9°F10.5°C 40.7°F4.8°C 68% 3.5 mph NW5.6 kmh NW 11.5 mph18.5 kmh 29.76 in1007.8 mb - 0.00 in0.0 mm 0.11 in2.8 mm
01:50 PM 51.1°F10.6°C 41.3°F5.2°C 69% 2.3 mph NW3.7 kmh NW 3.5 mph5.6 kmh 29.76 in1007.8 mb - 0.00 in0.0 mm 0.11 in2.8 mm
02:00 PM 51.4°F10.8°C 41.2°F5.1°C 68% Calm Calm 2.3 mph3.7 kmh 29.76 in1007.8 mb - 0.00 in0.0 mm 0.11 in2.8 mm
02:10 PM 51.7°F10.9°C 41.0°F5.0°C 67% 1.2 mph W1.9 kmh W 5.8 mph9.3 kmh 29.76 in1007.8 mb - 0.00 in0.0 mm 0.11 in2.8 mm
02:20 PM 51.6°F10.9°C 40.2°F4.6°C 65% 2.3 mph W3.7 kmh W 4.6 mph7.4 kmh 29.77 in1008.1 mb - 0.00 in0.0 mm 0.11 in2.8 mm
02:30 PM 51.3°F10.7°C 39.5°F4.2°C 64% 3.5 mph W5.6 kmh W 5.8 mph9.3 kmh 29.77 in1008.1 mb - 0.00 in0.0 mm 0.11 in2.8 mm
02:40 PM 50.9°F10.5°C 39.9°F4.4°C 66% Calm Calm 3.5 mph5.6 kmh 29.78 in1008.5 mb - 0.00 in0.0 mm 0.11 in2.8 mm
02:50 PM 50.8°F10.4°C 40.2°F4.6°C 67% Calm Calm 10.4 mph16.7 kmh 29.78 in1008.5 mb - 0.00 in0.0 mm 0.11 in2.8 mm
03:00 PM 50.7°F10.4°C 39.7°F4.3°C 66% Calm Calm -- 29.78 in1008.5 mb - 0.00 in0.0 mm 0.11 in2.8 mm
03:10 PM 50.5°F10.3°C 39.9°F4.4°C 67% 3.5 mph WNW5.6 kmh WNW 11.5 mph18.5 kmh 29.78 in1008.5 mb - 0.00 in0.0 mm 0.11 in2.8 mm
03:20 PM 50.3°F10.2°C 39.7°F4.3°C 67% Calm Calm 1.2 mph1.9 kmh 29.79 in1008.8 mb - 0.00 in0.0 mm 0.11 in2.8 mm
03:30 PM 50.1°F10.1°C 39.9°F4.4°C 68% Calm Calm -- 29.79 in1008.8 mb - 0.00 in0.0 mm 0.11 in2.8 mm
03:40 PM 49.9°F9.9°C 40.1°F4.5°C 69% Calm Calm 2.3 mph3.7 kmh 29.80 in1009.1 mb - 0.00 in0.0 mm 0.11 in2.8 mm
03:50 PM 49.7°F9.8°C 39.5°F4.2°C 68% 1.2 mph WNW1.9 kmh WNW 9.2 mph14.8 kmh 29.80 in1009.1 mb - 0.00 in0.0 mm 0.11 in2.8 mm
04:00 PM 49.5°F9.7°C 39.7°F4.3°C 69% 2.3 mph W3.7 kmh W 4.6 mph7.4 kmh 29.80 in1009.1 mb - 0.00 in0.0 mm 0.11 in2.8 mm
04:10 PM 49.2°F9.6°C 39.9°F4.4°C 70% Calm Calm -- 29.80 in1009.1 mb - 0.00 in0.0 mm 0.11 in2.8 mm
04:20 PM 48.8°F9.3°C 39.4°F4.1°C 70% 1.2 mph W1.9 kmh W 3.5 mph5.6 kmh 29.80 in1009.1 mb - 0.00 in0.0 mm 0.11 in2.8 mm
04:30 PM 48.3°F9.1°C 38.9°F3.8°C 70% Calm Calm 3.5 mph5.6 kmh 29.81 in1009.5 mb - 0.00 in0.0 mm 0.11 in2.8 mm
04:40 PM 47.8°F8.8°C 38.8°F3.8°C 71% Calm Calm -- 29.81 in1009.5 mb - 0.00 in0.0 mm 0.11 in2.8 mm
04:50 PM 47.2°F8.4°C 38.6°F3.7°C 72% Calm Calm -- 29.82 in1009.8 mb - 0.00 in0.0 mm 0.11 in2.8 mm
05:00 PM 46.8°F8.2°C 38.6°F3.7°C 73% Calm Calm -- 29.83 in1010.2 mb - 0.00 in0.0 mm 0.11 in2.8 mm
05:10 PM 46.4°F8.0°C 38.2°F3.4°C 73% Calm Calm -- 29.83 in1010.2 mb - 0.00 in0.0 mm 0.11 in2.8 mm
05:20 PM 45.8°F7.7°C 38.4°F3.6°C 75% Calm Calm -- 29.83 in1010.2 mb - 0.00 in0.0 mm 0.11 in2.8 mm
05:30 PM 45.3°F7.4°C 37.8°F3.2°C 75% Calm Calm -- 29.84 in1010.5 mb - 0.00 in0.0 mm 0.11 in2.8 mm
05:40 PM 44.8°F7.1°C 38.0°F3.3°C 77% Calm Calm -- 29.85 in1010.8 mb - 0.00 in0.0 mm 0.11 in2.8 mm
05:50 PM 44.6°F7.0°C 38.5°F3.6°C 79% Calm Calm -- 29.86 in1011.2 mb - 0.00 in0.0 mm 0.11 in2.8 mm
06:00 PM 44.4°F6.9°C 38.3°F3.5°C 79% Calm Calm -- 29.86 in1011.2 mb - 0.00 in0.0 mm 0.11 in2.8 mm
06:10 PM 44.2°F6.8°C 38.7°F3.7°C 81% Calm Calm -- 29.87 in1011.5 mb - 0.00 in0.0 mm 0.11 in2.8 mm
06:20 PM 44.0°F6.7°C 38.9°F3.8°C 82% Calm Calm -- 29.87 in1011.5 mb - 0.00 in0.0 mm 0.11 in2.8 mm
06:30 PM 44.0°F6.7°C 38.5°F3.6°C 81% Calm Calm -- 29.88 in1011.9 mb - 0.00 in0.0 mm 0.11 in2.8 mm
06:40 PM 43.8°F6.6°C 38.3°F3.5°C 81% Calm Calm -- 29.88 in1011.9 mb - 0.00 in0.0 mm 0.11 in2.8 mm
06:50 PM 43.4°F6.3°C 38.3°F3.5°C 82% Calm Calm -- 29.89 in1012.2 mb - 0.00 in0.0 mm 0.11 in2.8 mm
07:00 PM 43.2°F6.2°C 38.4°F3.6°C 83% Calm Calm -- 29.89 in1012.2 mb - 0.00 in0.0 mm 0.11 in2.8 mm
07:10 PM 43.0°F6.1°C 38.2°F3.4°C 83% Calm Calm -- 29.90 in1012.5 mb - 0.00 in0.0 mm 0.11 in2.8 mm
07:20 PM 42.8°F6.0°C 38.0°F3.3°C 83% Calm Calm -- 29.90 in1012.5 mb - 0.00 in0.0 mm 0.11 in2.8 mm
07:30 PM 42.4°F5.8°C 37.6°F3.1°C 83% Calm Calm -- 29.91 in1012.9 mb - 0.00 in0.0 mm 0.11 in2.8 mm
07:40 PM 42.1°F5.6°C 37.6°F3.1°C 84% Calm Calm -- 29.91 in1012.9 mb - 0.00 in0.0 mm 0.11 in2.8 mm
07:50 PM 41.8°F5.4°C 37.3°F2.9°C 84% Calm Calm -- 29.92 in1013.2 mb - 0.00 in0.0 mm 0.11 in2.8 mm
08:00 PM 41.5°F5.3°C 37.3°F2.9°C 85% Calm Calm -- 29.92 in1013.2 mb - 0.00 in0.0 mm 0.11 in2.8 mm
08:10 PM 41.4°F5.2°C 37.2°F2.9°C 85% Calm Calm -- 29.92 in1013.2 mb - 0.00 in0.0 mm 0.11 in2.8 mm
08:20 PM 41.1°F5.1°C 37.3°F2.9°C 86% Calm Calm -- 29.93 in1013.5 mb - 0.00 in0.0 mm 0.11 in2.8 mm
08:30 PM 40.9°F4.9°C 37.1°F2.8°C 86% Calm Calm -- 29.93 in1013.5 mb - 0.00 in0.0 mm 0.11 in2.8 mm
08:40 PM 40.7°F4.8°C 37.2°F2.9°C 87% Calm Calm -- 29.94 in1013.9 mb - 0.00 in0.0 mm 0.11 in2.8 mm
08:50 PM 40.5°F4.7°C 37.0°F2.8°C 87% Calm Calm -- 29.95 in1014.2 mb - 0.00 in0.0 mm 0.11 in2.8 mm
09:00 PM 40.4°F4.7°C 36.8°F2.7°C 87% Calm Calm -- 29.95 in1014.2 mb - 0.00 in0.0 mm 0.11 in2.8 mm
09:10 PM 40.2°F4.6°C 36.6°F2.6°C 87% Calm Calm -- 29.95 in1014.2 mb - 0.00 in0.0 mm 0.11 in2.8 mm
09:20 PM 39.9°F4.4°C 36.3°F2.4°C 87% Calm Calm -- 29.96 in1014.6 mb - 0.00 in0.0 mm 0.11 in2.8 mm
09:30 PM 39.3°F4.1°C 35.8°F2.1°C 87% Calm Calm -- 29.96 in1014.6 mb - 0.00 in0.0 mm 0.11 in2.8 mm
09:40 PM 38.8°F3.8°C 35.3°F1.8°C 87% Calm Calm -- 29.96 in1014.6 mb - 0.00 in0.0 mm 0.11 in2.8 mm
09:50 PM 38.3°F3.5°C 34.8°F1.6°C 87% Calm Calm -- 29.97 in1014.9 mb - 0.00 in0.0 mm 0.11 in2.8 mm
10:10 PM 37.6°F3.1°C 34.6°F1.4°C 89% Calm Calm -- 29.98 in1015.2 mb - 0.00 in0.0 mm 0.11 in2.8 mm
10:20 PM 37.3°F2.9°C 34.3°F1.3°C 89% Calm Calm -- 29.99 in1015.6 mb - 0.00 in0.0 mm 0.11 in2.8 mm
10:30 PM 37.0°F2.8°C 34.1°F1.2°C 89% Calm Calm -- 29.99 in1015.6 mb - 0.00 in0.0 mm 0.11 in2.8 mm
10:40 PM 36.8°F2.7°C 34.1°F1.2°C 90% Calm Calm -- 29.99 in1015.6 mb - 0.00 in0.0 mm 0.11 in2.8 mm
10:50 PM 37.3°F2.9°C 35.2°F1.8°C 92% Calm Calm -- 30.00 in1015.9 mb - 0.00 in0.0 mm 0.11 in2.8 mm
11:00 PM 37.4°F3.0°C 35.3°F1.8°C 92% Calm Calm -- 30.00 in1015.9 mb - 0.00 in0.0 mm 0.11 in2.8 mm
11:10 PM 37.2°F2.9°C 34.8°F1.6°C 91% Calm Calm -- 30.01 in1016.3 mb - 0.00 in0.0 mm 0.11 in2.8 mm
11:20 PM 36.8°F2.7°C 34.5°F1.4°C 91% Calm Calm -- 30.01 in1016.3 mb - 0.00 in0.0 mm 0.11 in2.8 mm
11:30 PM 36.4°F2.4°C 34.0°F1.1°C 91% Calm Calm -- 30.02 in1016.6 mb - 0.00 in0.0 mm 0.11 in2.8 mm
11:40 PM 35.9°F2.2°C 33.2°F0.7°C 90% Calm Calm -- 30.02 in1016.6 mb - 0.00 in0.0 mm 0.11 in2.8 mm
11:50 PM 35.4°F1.9°C 33.0°F0.6°C 91% Calm Calm -- 30.03 in1016.9 mb - 0.00 in0.0 mm 0.11 in2.8 mm